Time;durP1;ratioP1;P1;durP2;ratioP2;P2;SDS_P1;SDS_P2;PMS_P1;PMS_P2;Temp;Humidity;BMP_temperature;BMP_pressure;BME280_temperature;BME280_humidity;BME280_pressure;Samples;Min_cycle;Max_cycle;Signal;HPM_P1;HPM_P2
2023/09/04 00:00:11;;;;;;;14.15;12.77;;;;;;;15.98;67.95;102186.91;684944;28;1209;-83
2023/09/04 00:00:35;;;;;;;14.60;13.13;;;;;;;15.95;67.96;102183.28;682610;28;1120;-81
2023/09/04 00:00:58;;;;;;;14.40;12.90;;;;;;;15.93;67.93;102185.00;684010;28;1536;-80
2023/09/04 00:01:18;;;;;;;13.18;11.88;;;;;;;15.91;68.25;102179.66;687140;28;1407;-80
2023/09/04 00:01:39;;;;;;;13.50;12.15;;;;;;;15.93;68.02;102187.63;682520;29;1157;-81
2023/09/04 00:02:00;;;;;;;14.20;12.40;;;;;;;15.90;68.08;102180.53;682806;28;1784;-80
2023/09/04 00:02:21;;;;;;;22.70;13.43;;;;;;;15.88;68.14;102179.59;683565;28;1153;-80
2023/09/04 00:02:41;;;;;;;21.17;12.88;;;;;;;15.89;68.38;102184.00;680005;29;1014;-81
2023/09/04 00:03:02;;;;;;;20.67;13.35;;;;;;;15.92;67.99;102184.09;677234;29;1373;-81
2023/09/04 00:03:25;;;;;;;14.15;12.77;;;;;;;15.93;68.11;102183.25;677395;29;1312;-80
2023/09/04 00:03:46;;;;;;;14.20;12.88;;;;;;;15.90;67.93;102176.16;678182;29;1105;-81
2023/09/04 00:04:07;;;;;;;13.60;12.30;;;;;;;15.87;67.90;102180.44;681098;28;1187;-81
2023/09/04 00:04:28;;;;;;;13.20;11.90;;;;;;;15.85;67.99;102177.75;680171;29;1268;-81
2023/09/04 00:04:48;;;;;;;12.10;10.80;;;;;;;15.82;67.84;102172.44;679995;29;1030;-81
2023/09/04 00:05:09;;;;;;;11.50;10.30;;;;;;;15.87;67.84;102181.31;681956;28;1524;-80
2023/09/04 00:05:33;;;;;;;11.20;10.10;;;;;;;15.87;68.02;102186.59;681122;28;1592;-80
2023/09/04 00:05:54;;;;;;;11.63;10.52;;;;;;;15.86;67.89;102181.31;684377;28;942;-81
2023/09/04 00:06:15;;;;;;;12.65;10.38;;;;;;;15.85;67.97;102188.28;681027;28;1201;-80
2023/09/04 00:06:35;;;;;;;12.57;11.10;;;;;;;15.81;67.95;102175.91;684424;28;1652;-81
2023/09/04 00:06:56;;;;;;;13.57;12.10;;;;;;;15.83;67.78;102178.56;684715;28;1151;-81
2023/09/04 00:07:17;;;;;;;14.30;12.90;;;;;;;15.78;67.91;102172.28;684390;28;1188;-80
2023/09/04 00:07:37;;;;;;;14.82;13.25;;;;;;;15.77;68.08;102171.38;685372;28;1063;-81
2023/09/04 00:07:58;;;;;;;14.63;13.03;;;;;;;15.78;67.95;102173.16;685160;28;1097;-80
2023/09/04 00:08:18;;;;;;;14.45;12.95;;;;;;;15.77;67.91;102179.28;692610;28;1115;-80
2023/09/04 00:08:39;;;;;;;14.68;13.10;;;;;;;15.78;67.86;102175.81;689226;28;1521;-81
2023/09/04 00:08:59;;;;;;;14.40;12.90;;;;;;;15.79;67.99;102182.84;687751;28;1165;-80
2023/09/04 00:09:20;;;;;;;14.63;12.80;;;;;;;15.75;67.88;102171.34;686066;28;1185;-80
2023/09/04 00:09:41;;;;;;;14.48;13.02;;;;;;;15.76;67.90;102173.13;684402;28;1492;-80
2023/09/04 00:10:03;;;;;;;15.10;13.50;;;;;;;15.78;67.99;102174.94;685087;28;993;-82
2023/09/04 00:10:24;;;;;;;15.70;14.10;;;;;;;15.78;68.08;102174.94;688850;28;1275;-81
2023/09/04 00:10:44;;;;;;;16.07;14.43;;;;;;;15.79;68.00;102177.59;683801;28;1990;-80
2023/09/04 00:11:05;;;;;;;16.27;14.57;;;;;;;15.80;68.03;102171.47;686169;28;1122;-81
2023/09/04 00:11:27;;;;;;;17.40;14.98;;;;;;;15.82;68.50;102174.16;682806;29;890;-80
2023/09/04 00:11:47;;;;;;;17.17;14.77;;;;;;;15.84;68.09;102175.97;687754;28;1356;-81
2023/09/04 00:12:08;;;;;;;16.48;14.75;;;;;;;15.85;68.08;102179.53;688966;28;1170;-81
2023/09/04 00:12:28;;;;;;;17.20;15.32;;;;;;;15.83;68.00;102171.56;685097;28;1199;-81
2023/09/04 00:12:49;;;;;;;16.87;14.90;;;;;;;15.82;67.89;102172.44;683285;28;1182;-81
2023/09/04 00:13:11;;;;;;;16.05;14.35;;;;;;;15.83;68.02;102173.31;682795;28;1216;-81
2023/09/04 00:13:32;;;;;;;15.10;13.60;;;;;;;15.85;68.16;102177.75;687031;28;827;-80
2023/09/04 00:13:53;;;;;;;15.98;14.18;;;;;;;15.82;68.11;102174.16;684831;28;1236;-81
2023/09/04 00:14:15;;;;;;;17.58;14.63;;;;;;;15.85;68.07;102183.03;682823;28;1446;-80
2023/09/04 00:14:36;;;;;;;18.95;15.18;;;;;;;15.86;68.21;102179.53;685427;28;1319;-80
2023/09/04 00:14:57;;;;;;;17.02;14.82;;;;;;;15.83;68.05;102176.84;682095;28;1284;-80
2023/09/04 00:15:17;;;;;;;16.13;14.00;;;;;;;15.81;68.21;102175.91;685475;28;1056;-80
2023/09/04 00:15:38;;;;;;;15.27;13.67;;;;;;;15.87;68.27;102181.31;684241;28;1371;-81
2023/09/04 00:15:59;;;;;;;15.23;13.63;;;;;;;15.86;68.12;102179.53;684961;28;1031;-81
2023/09/04 00:16:19;;;;;;;16.70;14.75;;;;;;;15.83;68.30;102174.22;686532;28;1312;-80
2023/09/04 00:16:41;;;;;;;18.87;15.57;;;;;;;15.81;68.31;102168.00;685382;28;998;-80
2023/09/04 00:17:02;;;;;;;17.63;15.18;;;;;;;15.85;68.25;102171.63;687665;28;1037;-81
2023/09/04 00:17:23;;;;;;;17.37;14.07;;;;;;;15.82;68.16;102172.44;689095;28;1420;-81
2023/09/04 00:17:49;;;;;;;15.00;12.70;;;;;;;15.83;68.11;102179.47;687586;28;1299;-81
2023/09/04 00:18:09;;;;;;;14.40;11.75;;;;;;;15.82;68.04;102171.53;686621;28;1111;-81
2023/09/04 00:18:31;;;;;;;12.07;10.98;;;;;;;15.79;68.07;102172.31;685061;28;1493;-81
2023/09/04 00:18:51;;;;;;;11.25;10.35;;;;;;;15.75;68.19;102165.19;685100;28;1153;-80
2023/09/04 00:19:12;;;;;;;11.77;10.77;;;;;;;15.75;68.19;102173.09;684770;28;1341;-81
2023/09/04 00:19:34;;;;;;;12.77;11.50;;;;;;;15.73;68.19;102166.91;679745;29;1482;-82
2023/09/04 00:19:54;;;;;;;14.93;13.20;;;;;;;15.72;68.41;102170.34;681558;29;1392;-81
2023/09/04 00:20:16;;;;;;;15.23;13.40;;;;;;;15.73;68.24;102172.16;688401;28;1548;-80
2023/09/04 00:20:41;;;;;;;15.23;13.60;;;;;;;15.74;68.40;102181.84;685106;28;1859;-80
2023/09/04 00:21:03;;;;;;;15.70;13.85;;;;;;;15.72;68.50;102170.34;682087;29;1395;-80
2023/09/04 00:21:25;;;;;;;16.25;14.20;;;;;;;15.70;68.41;102172.06;679321;29;1425;-81
2023/09/04 00:21:45;;;;;;;16.83;14.77;;;;;;;15.74;68.49;102173.94;682328;29;1655;-81
2023/09/04 00:22:06;;;;;;;16.63;14.90;;;;;;;15.71;68.38;102165.94;681770;29;1282;-81
2023/09/04 00:22:27;;;;;;;17.10;15.30;;;;;;;15.72;68.43;102170.34;679996;29;1372;-81
2023/09/04 00:22:48;;;;;;;16.85;15.05;;;;;;;15.70;68.51;102177.31;683232;28;1644;-80
2023/09/04 00:23:08;;;;;;;16.83;14.97;;;;;;;15.72;68.30;102171.25;682160;28;1146;-81
2023/09/04 00:23:29;;;;;;;17.55;14.60;;;;;;;15.72;68.35;102175.63;687558;28;1236;-81
2023/09/04 00:23:50;;;;;;;17.23;14.60;;;;;;;15.73;68.75;102177.44;684940;28;1331;-84
2023/09/04 00:24:11;;;;;;;17.52;14.50;;;;;;;15.72;68.46;102170.34;681899;29;1326;-83
2023/09/04 00:24:31;;;;;;;16.23;14.37;;;;;;;15.72;68.38;102167.72;685132;28;1290;-81
2023/09/04 00:24:52;;;;;;;15.05;13.55;;;;;;;15.71;68.39;102168.56;682293;28;1185;-83
2023/09/04 00:25:12;;;;;;;15.27;13.68;;;;;;;15.72;68.43;102167.72;681907;28;1637;-83
2023/09/04 00:25:33;;;;;;;15.47;13.80;;;;;;;15.72;68.29;102165.09;684911;28;1298;-83
2023/09/04 00:25:54;;;;;;;14.68;13.05;;;;;;;15.71;68.34;102165.94;682186;29;1052;-84
2023/09/04 00:26:15;;;;;;;14.48;12.98;;;;;;;15.68;68.38;102169.38;683983;28;1387;-82
2023/09/04 00:26:35;;;;;;;14.88;13.38;;;;;;;15.69;68.17;102170.28;685383;28;1173;-83
2023/09/04 00:26:56;;;;;;;16.10;14.43;;;;;;;15.66;68.36;102165.81;684716;28;1456;-83
2023/09/04 00:27:19;;;;;;;15.38;13.77;;;;;;;15.67;68.28;102164.09;685421;28;1528;-83
2023/09/04 00:27:39;;;;;;;15.10;13.60;;;;;;;15.67;68.27;102170.22;681897;29;1405;-83
2023/09/04 00:28:00;;;;;;;15.03;13.53;;;;;;;15.68;68.36;102171.13;682294;28;1054;-83
2023/09/04 00:28:20;;;;;;;15.77;14.17;;;;;;;15.65;68.26;102168.38;690568;28;1480;-83
2023/09/04 00:28:41;;;;;;;16.70;15.00;;;;;;;15.63;68.48;102169.25;690567;28;1201;-83
2023/09/04 00:29:01;;;;;;;17.23;14.80;;;;;;;15.61;68.47;102168.31;687595;28;1078;-83
2023/09/04 00:29:22;;;;;;;16.30;14.45;;;;;;;15.59;68.42;102161.22;687380;28;1133;-81
2023/09/04 00:29:43;;;;;;;15.20;13.32;;;;;;;15.61;68.43;102172.69;679768;29;1257;-81
2023/09/04 00:30:05;;;;;;;15.18;13.57;;;;;;;15.66;68.57;102175.47;682330;28;1279;-81
2023/09/04 00:30:26;;;;;;;16.35;14.65;;;;;;;15.60;68.57;102177.06;682516;28;1458;-80
2023/09/04 00:30:48;;;;;;;16.77;15.07;;;;;;;15.62;68.64;102174.47;685112;28;1960;-84
2023/09/04 00:31:08;;;;;;;16.58;14.85;;;;;;;15.63;68.54;102179.75;682152;29;1021;-83
2023/09/04 00:31:29;;;;;;;15.20;13.60;;;;;;;15.61;68.50;102173.56;684096;28;942;-82
2023/09/04 00:31:49;;;;;;;14.93;13.43;;;;;;;15.59;68.50;102171.75;685110;28;1485;-83
2023/09/04 00:32:10;;;;;;;15.00;13.40;;;;;;;15.58;68.54;102168.22;684995;28;1109;-84
2023/09/04 00:32:30;;;;;;;15.40;13.23;;;;;;;15.60;68.51;102173.50;685350;28;929;-82
2023/09/04 00:32:57;;;;;;;15.33;13.33;;;;;;;15.59;68.70;102172.66;684503;28;1485;-84
2023/09/04 00:33:18;;;;;;;17.13;14.05;;;;;;;15.60;68.46;102173.50;686605;28;1316;-83
2023/09/04 00:33:38;;;;;;;16.75;14.48;;;;;;;15.58;68.52;102170.88;685063;28;1169;-83
2023/09/04 00:33:59;;;;;;;17.80;14.40;;;;;;;15.63;68.49;102176.25;684022;28;1876;-83
2023/09/04 00:34:20;;;;;;;15.75;14.05;;;;;;;15.59;68.60;102172.66;685047;28;1218;-83
2023/09/04 00:34:40;;;;;;;16.15;14.05;;;;;;;15.61;68.51;102170.06;678494;29;1616;-83
2023/09/04 00:35:01;;;;;;;15.07;13.47;;;;;;;15.58;68.55;102173.50;681524;29;1404;-83
2023/09/04 00:35:22;;;;;;;14.80;13.20;;;;;;;15.62;68.63;102175.34;684976;28;1276;-83
2023/09/04 00:35:43;;;;;;;14.43;12.90;;;;;;;15.59;68.42;102170.00;684121;28;1479;-82
2023/09/04 00:36:04;;;;;;;15.48;12.65;;;;;;;15.58;68.42;102172.59;682078;28;1823;-83
2023/09/04 00:36:25;;;;;;;13.85;12.15;;;;;;;15.59;68.46;102182.25;685183;28;1244;-83
2023/09/04 00:36:45;;;;;;;13.95;12.45;;;;;;;15.54;68.56;102173.38;682586;28;1187;-83
2023/09/04 00:37:09;;;;;;;14.73;13.23;;;;;;;15.58;68.56;102177.84;682007;28;1145;-84
2023/09/04 00:37:30;;;;;;;15.68;13.98;;;;;;;15.54;68.53;102176.00;682580;29;1222;-83
2023/09/04 00:37:51;;;;;;;15.30;13.70;;;;;;;15.53;68.49;102169.81;685137;28;1177;-83
2023/09/04 00:38:11;;;;;;;15.27;13.80;;;;;;;15.53;68.54;102174.19;684215;28;1517;-83
2023/09/04 00:38:32;;;;;;;14.80;13.45;;;;;;;15.55;68.58;102176.00;685202;28;1312;-83
2023/09/04 00:38:53;;;;;;;14.73;13.32;;;;;;;15.51;68.50;102171.53;683847;28;1360;-84
2023/09/04 00:39:14;;;;;;;15.05;13.55;;;;;;;15.52;68.67;102173.31;682585;28;1318;-83
2023/09/04 00:39:34;;;;;;;15.00;13.47;;;;;;;15.51;68.62;102166.25;685210;28;1173;-83
2023/09/04 00:39:55;;;;;;;14.05;12.52;;;;;;;15.51;68.51;102170.63;684917;28;1139;-84
2023/09/04 00:40:15;;;;;;;14.87;12.70;;;;;;;15.53;68.68;102174.19;683925;28;1254;-83
2023/09/04 00:40:36;;;;;;;15.00;12.70;;;;;;;15.52;68.51;102175.94;682366;28;1688;-83
2023/09/04 00:40:56;;;;;;;14.90;12.80;;;;;;;15.51;68.76;102170.63;686753;28;1144;-84
2023/09/04 00:41:19;;;;;;;14.30;12.07;;;;;;;15.46;68.68;102163.50;687306;28;1248;-82
2023/09/04 00:41:39;;;;;;;14.00;11.95;;;;;;;15.47;68.62;102169.63;690634;28;947;-83
2023/09/04 00:42:00;;;;;;;14.10;12.60;;;;;;;15.51;68.55;102181.16;687178;28;1324;-83
2023/09/04 00:42:20;;;;;;;14.73;13.15;;;;;;;15.48;68.63;102166.16;684289;28;1186;-83
2023/09/04 00:42:41;;;;;;;15.30;13.80;;;;;;;15.48;68.76;102166.16;681630;29;1256;-83
2023/09/04 00:43:02;;;;;;;15.75;14.15;;;;;;;15.50;68.67;102175.00;684995;28;1068;-84
2023/09/04 00:45:11;;;;;;;16.35;14.65;;;;;;;15.41;68.49;102169.44;690079;28;1161;-82
2023/09/04 00:45:34;;;;;;;16.65;14.95;;;;;;;15.41;68.71;102169.44;684906;28;1401;-83
2023/09/04 00:45:55;;;;;;;16.98;15.18;;;;;;;15.42;68.40;102169.50;683386;28;1847;-83
2023/09/04 00:46:16;;;;;;;17.03;15.23;;;;;;;15.41;68.54;102169.44;684134;28;1053;-83
2023/09/04 00:46:37;;;;;;;17.13;14.90;;;;;;;15.38;68.83;102166.72;685393;28;774;-83
2023/09/04 00:46:59;;;;;;;16.45;14.68;;;;;;;15.40;68.59;102172.91;687234;28;1812;-81
2023/09/04 00:47:23;;;;;;;16.58;14.88;;;;;;;15.38;68.71;102169.34;687339;28;1470;-82
2023/09/04 00:47:44;;;;;;;24.15;15.77;;;;;;;15.41;68.83;102180.88;682525;28;1258;-84
2023/09/04 00:48:05;;;;;;;25.48;16.15;;;;;;;15.35;68.63;102165.81;681839;28;1645;-84
2023/09/04 00:48:26;;;;;;;21.33;15.88;;;;;;;15.41;68.83;102180.88;679975;29;819;-83
2023/09/04 00:48:47;;;;;;;16.75;15.13;;;;;;;15.38;68.68;102167.63;682612;29;989;-83
2023/09/04 00:49:09;;;;;;;16.10;14.60;;;;;;;15.41;68.84;102174.69;682675;28;1525;-83
2023/09/04 00:49:30;;;;;;;15.75;14.20;;;;;;;15.39;68.62;102171.16;682747;29;1336;-83
2023/09/04 00:49:52;;;;;;;15.57;13.98;;;;;;;15.37;68.81;102171.13;679788;29;1084;-83
2023/09/04 00:50:19;;;;;;;14.52;13.02;;;;;;;15.35;68.74;102172.78;683482;28;1200;-83
2023/09/04 00:50:42;;;;;;;13.40;12.00;;;;;;;15.30;68.76;102162.13;687974;28;1993;-83
2023/09/04 00:51:03;;;;;;;13.43;12.13;;;;;;;15.33;68.75;102162.25;682079;28;1252;-84
2023/09/04 00:51:24;;;;;;;14.05;12.65;;;;;;;15.34;68.64;102171.00;683878;28;1467;-83
2023/09/04 00:51:44;;;;;;;15.85;14.18;;;;;;;15.33;68.77;102167.50;682069;29;1267;-83
2023/09/04 00:52:05;;;;;;;16.50;14.80;;;;;;;15.31;68.81;102161.28;684617;28;1145;-83
2023/09/04 00:52:26;;;;;;;18.20;16.30;;;;;;;15.30;68.81;102162.13;687017;28;1546;-83
2023/09/04 00:52:49;;;;;;;18.60;16.70;;;;;;;15.33;68.82;102172.75;685005;28;1028;-83
2023/09/04 00:53:10;;;;;;;18.92;16.98;;;;;;;15.28;68.57;102162.91;688298;28;1129;-83
2023/09/04 00:53:32;;;;;;;18.63;16.83;;;;;;;15.31;68.69;102169.16;685056;28;1367;-83
2023/09/04 00:53:53;;;;;;;18.65;16.85;;;;;;;15.28;68.71;102170.81;684917;28;1430;-83
2023/09/04 00:54:14;;;;;;;19.23;17.33;;;;;;;15.28;68.56;102166.44;690298;28;1183;-83
2023/09/04 00:54:37;;;;;;;20.52;18.42;;;;;;;15.28;68.75;102169.09;687778;28;1393;-83
2023/09/04 00:55:00;;;;;;;20.50;18.48;;;;;;;15.28;68.71;102173.44;686884;28;1735;-83
2023/09/04 00:55:22;;;;;;;19.63;17.70;;;;;;;15.30;68.78;102177.91;687684;28;1154;-83
2023/09/04 00:55:44;;;;;;;18.33;16.45;;;;;;;15.25;68.88;102170.72;687085;28;1234;-81
2023/09/04 00:56:07;;;;;;;17.05;15.25;;;;;;;15.26;68.75;102169.88;687599;28;1449;-80
2023/09/04 00:56:27;;;;;;;18.40;16.10;;;;;;;15.26;68.84;102170.78;693405;28;1275;-80
2023/09/04 00:56:51;;;;;;;17.98;16.10;;;;;;;15.28;68.59;102176.97;685488;28;1501;-83
2023/09/04 00:57:12;;;;;;;18.60;16.83;;;;;;;15.25;68.91;102174.25;686133;28;1441;-83
2023/09/04 00:57:34;;;;;;;18.63;16.92;;;;;;;15.28;68.61;102174.34;682660;29;784;-82
2023/09/04 00:57:55;;;;;;;19.60;17.70;;;;;;;15.31;68.86;102182.31;684158;28;1682;-83
2023/09/04 00:58:16;;;;;;;20.23;18.15;;;;;;;15.28;68.76;102173.44;684930;28;1974;-83
2023/09/04 00:58:36;;;;;;;19.20;17.23;;;;;;;15.26;68.77;102175.13;682662;29;859;-83
2023/09/04 00:58:57;;;;;;;18.85;16.85;;;;;;;15.27;68.88;102177.81;680947;28;1493;-83
2023/09/04 00:59:18;;;;;;;21.43;17.13;;;;;;;15.26;68.62;102170.78;683963;28;1049;-83
2023/09/04 00:59:40;;;;;;;23.42;18.25;;;;;;;15.27;68.63;102176.91;685367;28;1041;-83
2023/09/04 01:00:12;;;;;;;23.65;19.15;;;;;;;15.28;68.70;102174.34;684837;28;1278;-83
2023/09/04 01:00:33;;;;;;;20.23;18.13;;;;;;;15.24;68.86;102172.44;681880;29;1321;-83
2023/09/04 01:00:54;;;;;;;18.07;16.23;;;;;;;15.21;68.71;102167.09;682338;29;1202;-83
2023/09/04 01:01:15;;;;;;;17.77;15.93;;;;;;;15.21;68.92;102175.00;686469;28;1566;-83
2023/09/04 01:01:35;;;;;;;18.63;16.67;;;;;;;15.25;68.76;102175.97;687510;28;1184;-83
2023/09/04 01:01:59;;;;;;;19.75;17.73;;;;;;;15.23;68.82;102167.16;684641;28;1226;-83
2023/09/04 01:02:19;;;;;;;20.35;18.15;;;;;;;15.23;68.76;102175.06;685107;28;1009;-83
2023/09/04 01:02:41;;;;;;;20.02;17.92;;;;;;;15.24;68.77;102182.97;685291;28;1128;-83
2023/09/04 01:03:03;;;;;;;19.38;17.33;;;;;;;15.26;69.02;102173.41;677319;28;1557;-84
2023/09/04 01:03:24;;;;;;;19.33;17.33;;;;;;;15.22;68.69;102171.53;679667;29;1387;-83
2023/09/04 01:03:45;;;;;;;18.83;16.83;;;;;;;15.24;68.69;102172.44;686779;28;1186;-83
2023/09/04 01:04:05;;;;;;;20.20;18.10;;;;;;;15.24;68.70;102167.19;687089;28;1118;-83
2023/09/04 01:04:26;;;;;;;19.95;17.95;;;;;;;15.25;68.84;102174.25;680038;29;914;-83
2023/09/04 01:04:48;;;;;;;20.20;18.25;;;;;;;15.22;68.71;102163.63;685052;28;1282;-83
2023/09/04 01:05:09;;;;;;;19.25;17.35;;;;;;;15.26;68.82;102176.03;681356;28;1763;-83
2023/09/04 01:05:31;;;;;;;18.35;16.45;;;;;;;15.20;68.91;102173.19;683231;28;1653;-83
2023/09/04 01:05:52;;;;;;;16.52;14.77;;;;;;;15.19;68.87;102167.00;684318;28;1320;-82
2023/09/04 01:06:13;;;;;;;15.40;13.80;;;;;;;15.24;68.74;102166.31;682551;28;2231;-83
2023/09/04 01:06:33;;;;;;;17.13;14.43;;;;;;;15.18;68.95;102157.34;682221;28;1381;-82
2023/09/04 01:06:54;;;;;;;17.57;15.03;;;;;;;15.24;68.71;102175.06;681373;28;1577;-83
2023/09/04 01:07:15;;;;;;;19.00;15.33;;;;;;;15.19;68.64;102163.50;682757;28;1227;-84
2023/09/04 01:07:37;;;;;;;16.20;14.48;;;;;;;15.20;68.84;102162.66;682730;29;1681;-83
2023/09/04 01:08:00;;;;;;;16.00;13.85;;;;;;;15.24;68.60;102168.94;679418;29;1786;-83
2023/09/04 01:08:20;;;;;;;15.10;13.60;;;;;;;15.18;68.61;102162.59;684694;28;1343;-82
2023/09/04 01:08:41;;;;;;;15.20;13.60;;;;;;;15.20;68.74;102165.28;684135;28;1077;-82
2023/09/04 01:09:03;;;;;;;16.30;14.65;;;;;;;15.19;68.73;102169.66;679006;29;1467;-83
2023/09/04 01:09:24;;;;;;;16.60;14.90;;;;;;;15.19;68.72;102171.41;677332;29;1182;-83
2023/09/04 01:09:45;;;;;;;17.52;15.73;;;;;;;15.19;68.77;102163.50;677042;29;1370;-83
2023/09/04 01:10:08;;;;;;;17.48;15.68;;;;;;;15.20;68.74;102167.91;680694;28;1292;-83
2023/09/04 01:10:37;;;;;;;18.08;16.17;;;;;;;15.18;68.65;102172.25;683477;28;1356;-82
2023/09/04 01:11:15;;;;;;;17.85;15.55;;;;;;;15.15;68.79;102166.88;681750;29;1128;-82
2023/09/04 01:11:35;;;;;;;18.15;15.65;;;;;;;15.17;68.76;102170.44;682592;29;913;-83
2023/09/04 01:12:07;;;;;;;18.05;16.15;;;;;;;15.16;68.74;102173.91;682105;28;1151;-83
2023/09/04 01:12:36;;;;;;;17.90;15.27;;;;;;;15.15;68.89;102173.03;682182;29;1104;-83
2023/09/04 01:13:05;;;;;;;16.60;14.13;;;;;;;15.13;68.78;102168.56;684840;28;1230;-83
2023/09/04 01:13:38;;;;;;;16.80;15.00;;;;;;;15.11;68.81;102165.00;687672;28;1305;-83
2023/09/04 01:14:00;;;;;;;16.80;15.15;;;;;;;15.12;68.83;102169.41;687412;28;1149;-83
2023/09/04 01:14:23;;;;;;;16.20;14.70;;;;;;;15.11;69.09;102165.00;686675;28;1355;-83
2023/09/04 01:14:46;;;;;;;16.52;15.02;;;;;;;15.11;69.10;102171.16;682529;28;1012;-84
2023/09/04 01:15:09;;;;;;;16.30;14.70;;;;;;;15.09;69.08;102162.31;683224;28;1363;-83
2023/09/04 01:15:31;;;;;;;16.80;14.70;;;;;;;15.08;68.92;102158.78;679690;29;1864;-83
2023/09/04 01:15:53;;;;;;;17.17;14.52;;;;;;;15.08;68.91;102169.31;682001;29;993;-83
2023/09/04 01:16:14;;;;;;;16.30;14.60;;;;;;;15.04;69.25;102156.00;681512;29;1641;-83
2023/09/04 01:16:37;;;;;;;16.00;14.43;;;;;;;15.08;69.14;102166.69;682067;29;1379;-83
2023/09/04 01:16:58;;;;;;;16.98;15.18;;;;;;;15.07;69.17;102164.03;685083;28;1381;-84
2023/09/04 01:17:19;;;;;;;17.65;15.60;;;;;;;15.03;69.06;102163.03;687258;28;1280;-83
2023/09/04 01:17:41;;;;;;;17.30;15.50;;;;;;;15.01;68.84;102153.31;685757;28;1430;-83
2023/09/04 01:18:02;;;;;;;17.08;15.40;;;;;;;15.01;69.02;102159.44;684887;28;1413;-83
2023/09/04 01:18:23;;;;;;;17.95;16.05;;;;;;;15.03;68.97;102155.13;683075;28;1373;-83
2023/09/04 01:18:44;;;;;;;18.08;16.17;;;;;;;15.04;68.89;102169.16;683665;28;1022;-84
2023/09/04 01:19:10;;;;;;;17.90;15.80;;;;;;;15.05;69.06;102166.59;681912;29;1205;-84
2023/09/04 01:19:32;;;;;;;16.55;14.90;;;;;;;15.03;69.31;102156.88;682478;29;1232;-83
2023/09/04 01:19:52;;;;;;;16.20;14.60;;;;;;;15.01;69.22;102159.44;679665;29;1693;-83
2023/09/04 01:20:28;;;;;;;16.58;14.98;;;;;;;15.00;69.03;102159.41;684880;28;1192;-83
2023/09/04 01:21:04;;;;;;;16.60;15.00;;;;;;;14.99;69.16;102155.88;679842;29;1491;-82
2023/09/04 01:21:26;;;;;;;16.58;14.88;;;;;;;14.98;69.24;102158.47;682451;28;905;-83
2023/09/04 01:21:46;;;;;;;16.83;15.10;;;;;;;14.98;69.19;102153.22;686568;28;1042;-83
2023/09/04 01:22:07;;;;;;;17.92;15.45;;;;;;;15.00;68.90;102169.94;681870;28;1593;-83
2023/09/04 01:22:29;;;;;;;17.52;14.70;;;;;;;14.98;69.29;102159.34;687774;28;1347;-83
2023/09/04 01:22:50;;;;;;;17.63;14.45;;;;;;;14.98;68.96;102164.59;685182;28;1297;-83
2023/09/04 01:23:11;;;;;;;16.73;14.35;;;;;;;14.96;69.20;102155.78;682903;28;1399;-83
2023/09/04 01:23:32;;;;;;;16.02;13.98;;;;;;;14.96;69.00;102163.66;690677;28;1547;-83
2023/09/04 01:23:53;;;;;;;16.98;14.30;;;;;;;14.91;68.97;102152.09;684889;28;1396;-83
2023/09/04 01:24:14;;;;;;;16.77;14.32;;;;;;;14.94;69.21;102160.13;679393;28;1500;-83
2023/09/04 01:24:36;;;;;;;17.10;14.80;;;;;;;14.92;69.23;102162.69;682328;28;1291;-83
2023/09/04 01:24:56;;;;;;;16.10;14.40;;;;;;;14.92;69.17;102164.41;679974;28;1398;-83
2023/09/04 01:25:17;;;;;;;16.27;14.67;;;;;;;14.89;69.15;102159.06;683261;28;1338;-83
2023/09/04 01:25:40;;;;;;;15.37;13.87;;;;;;;14.93;69.26;102166.19;684563;28;1268;-83
2023/09/04 01:26:28;;;;;;;14.65;13.25;;;;;;;14.93;69.25;102166.19;684864;28;929;-83
2023/09/04 01:27:05;;;;;;;13.63;12.32;;;;;;;14.90;69.09;102153.84;682325;28;1292;-83
2023/09/04 01:27:30;;;;;;;14.63;13.18;;;;;;;14.92;69.15;102164.41;682906;28;1470;-83
2023/09/04 01:28:12;;;;;;;15.48;13.82;;;;;;;14.92;69.16;102167.94;684493;28;1416;-83
2023/09/04 01:28:55;;;;;;;14.25;12.85;;;;;;;14.92;69.01;102159.16;687362;28;1123;-82
2023/09/04 01:29:27;;;;;;;17.77;14.02;;;;;;;14.93;69.06;102163.56;688233;28;1061;-83
2023/09/04 01:29:56;;;;;;;18.60;15.90;;;;;;;14.92;69.47;102165.31;690253;28;1055;-84
2023/09/04 01:30:33;;;;;;;19.20;17.20;;;;;;;14.88;69.16;102158.16;686810;28;1185;-83
2023/09/04 01:31:03;;;;;;;20.98;17.65;;;;;;;14.92;69.11;102167.03;681485;28;1965;-83
2023/09/04 01:31:26;;;;;;;19.70;17.65;;;;;;;14.93;69.28;102164.47;685189;28;906;-83
2023/09/04 01:31:50;;;;;;;18.90;17.10;;;;;;;14.94;69.45;102162.75;684801;28;1361;-83
2023/09/04 01:32:20;;;;;;;18.67;16.88;;;;;;;14.90;69.17;102156.50;682283;29;1238;-83
2023/09/04 01:32:48;;;;;;;19.88;17.77;;;;;;;14.95;69.35;102167.16;681272;29;1561;-83
2023/09/04 01:33:13;;;;;;;23.52;20.05;;;;;;;14.97;69.21;102161.91;682141;28;1493;-83
2023/09/04 01:33:40;;;;;;;25.65;21.10;;;;;;;14.94;69.20;102157.47;685989;28;1328;-83
2023/09/04 01:34:11;;;;;;;25.50;21.80;;;;;;;14.96;69.17;102160.13;688720;28;1776;-83
2023/09/04 01:34:41;;;;;;;22.45;19.80;;;;;;;14.92;68.92;102157.44;687997;28;1181;-83
2023/09/04 01:35:05;;;;;;;22.40;18.90;;;;;;;14.92;69.28;102161.78;689968;28;1656;-83
2023/09/04 01:35:30;;;;;;;21.50;19.20;;;;;;;14.90;69.17;102155.59;683848;28;1004;-83
2023/09/04 01:35:51;;;;;;;22.15;18.48;;;;;;;14.92;69.15;102160.06;685686;28;1040;-83
2023/09/04 01:36:16;;;;;;;20.38;17.98;;;;;;;14.93;69.26;102160.94;685193;28;1446;-83
2023/09/04 01:36:38;;;;;;;21.25;17.88;;;;;;;14.90;69.39;102155.59;682539;29;1315;-83
2023/09/04 01:37:00;;;;;;;20.77;17.77;;;;;;;14.94;69.27;102154.84;682113;28;986;-83
2023/09/04 01:37:22;;;;;;;20.65;17.50;;;;;;;14.90;69.04;102152.94;688163;28;1219;-83
2023/09/04 01:37:43;;;;;;;18.95;16.77;;;;;;;14.87;69.02;102144.97;685042;28;1009;-83
2023/09/04 01:38:04;;;;;;;19.65;17.55;;;;;;;14.92;69.22;102160.06;685048;28;1390;-84
2023/09/04 01:38:25;;;;;;;19.08;17.08;;;;;;;14.89;69.12;102161.69;687508;28;1720;-82
2023/09/04 01:38:46;;;;;;;19.88;17.73;;;;;;;14.93;69.28;102160.94;685067;28;1153;-83
2023/09/04 01:39:09;;;;;;;18.58;16.63;;;;;;;14.92;69.29;102148.63;684674;28;1216;-84
2023/09/04 01:39:30;;;;;;;18.63;16.73;;;;;;;14.91;69.12;102153.00;683027;28;1606;-83
2023/09/04 01:39:52;;;;;;;20.38;16.83;;;;;;;14.91;69.13;102152.09;682225;29;1430;-84
2023/09/04 01:40:13;;;;;;;18.23;15.80;;;;;;;14.89;69.22;102149.41;684910;28;1328;-83
2023/09/04 01:40:37;;;;;;;17.50;15.17;;;;;;;14.89;69.38;102149.41;686823;28;1723;-83
2023/09/04 01:40:58;;;;;;;20.80;16.27;;;;;;;14.92;69.28;102153.88;680567;28;1643;-82
2023/09/04 01:41:18;;;;;;;22.10;17.00;;;;;;;14.90;69.27;102153.84;681063;29;1282;-83
2023/09/04 01:41:39;;;;;;;22.02;16.75;;;;;;;14.88;69.08;102152.91;681769;29;1454;-84
2023/09/04 01:42:00;;;;;;;18.30;16.40;;;;;;;14.87;68.93;102145.84;679563;29;1065;-83
2023/09/04 01:42:20;;;;;;;18.77;16.53;;;;;;;14.87;69.18;102158.13;687287;28;1056;-83
2023/09/04 01:42:41;;;;;;;19.55;16.40;;;;;;;14.85;69.11;102152.81;687159;28;1618;-83
2023/09/04 01:43:01;;;;;;;19.37;16.10;;;;;;;14.87;69.12;102160.75;682085;29;1246;-83
2023/09/04 01:43:22;;;;;;;16.75;14.95;;;;;;;14.84;69.26;102152.75;690155;28;1349;-83
2023/09/04 01:43:42;;;;;;;16.52;14.82;;;;;;;14.85;69.25;102158.06;687734;28;1023;-83
2023/09/04 01:44:03;;;;;;;16.07;14.20;;;;;;;14.80;69.29;102160.53;687421;28;1521;-84
2023/09/04 01:44:25;;;;;;;18.65;14.98;;;;;;;14.84;69.29;102158.91;684954;28;1181;-83
2023/09/04 01:44:45;;;;;;;16.80;14.50;;;;;;;14.79;69.40;102153.50;682224;28;1190;-83
2023/09/04 01:45:07;;;;;;;15.98;14.32;;;;;;;14.78;69.26;102156.06;682331;28;1765;-84
2023/09/04 01:45:27;;;;;;;15.00;13.50;;;;;;;14.76;69.18;102156.00;685152;28;1184;-84
2023/09/04 01:45:48;;;;;;;15.27;13.67;;;;;;;14.74;69.38;102152.44;678969;29;1299;-83